sensor_id;sensor_type;location;lat;lon;timestamp;pressure;altitude;pressure_sealevel;temperature;humidity
16030;BME280;34770;49.272;11.070;2023-12-14T02:37:01;96741.81;;;5.57;100.00
16030;BME280;34770;49.272;11.070;2023-12-14T02:39:51;96743.38;;;5.59;100.00
16030;BME280;34770;49.272;11.070;2023-12-14T03:42:29;96803.91;;;5.22;100.00
16030;BME280;34770;49.272;11.070;2023-12-14T03:45:45;96869.34;;;5.53;100.00
16030;BME280;34770;49.272;11.070;2023-12-14T03:51:26;96833.34;;;5.12;100.00
16030;BME280;34770;49.272;11.070;2023-12-14T03:54:09;96869.38;;;5.31;100.00
16030;BME280;34770;49.272;11.070;2023-12-14T03:56:51;96822.88;;;4.98;100.00
16030;BME280;34770;49.272;11.070;2023-12-14T04:00:13;96893.28;;;5.45;100.00
16030;BME280;34770;49.272;11.070;2023-12-14T04:03:03;96883.31;;;5.36;100.00
16030;BME280;34770;49.272;11.070;2023-12-14T04:05:36;96871.00;;;5.33;100.00
16030;BME280;34770;49.272;11.070;2023-12-14T04:08:06;96915.50;;;5.47;100.00
16030;BME280;34770;49.272;11.070;2023-12-14T04:10:41;96879.34;;;5.19;100.00
16030;BME280;34770;49.272;11.070;2023-12-14T04:13:36;96925.50;;;5.45;100.00
16030;BME280;34770;49.272;11.070;2023-12-14T04:16:09;96889.81;;;5.11;100.00
16030;BME280;34770;49.272;11.070;2023-12-14T04:18:53;96915.56;;;5.24;100.00
16030;BME280;34770;49.272;11.070;2023-12-14T04:21:43;96928.47;;;5.42;100.00
16030;BME280;34770;49.272;11.070;2023-12-14T04:24:57;96930.63;;;5.48;100.00
16030;BME280;34770;49.272;11.070;2023-12-14T04:27:57;96899.06;;;5.29;100.00
16030;BME280;34770;49.272;11.070;2023-12-14T04:34:39;96959.59;;;5.76;100.00
16030;BME280;34770;49.272;11.070;2023-12-14T04:37:47;96920.69;;;5.59;100.00
16030;BME280;34770;49.272;11.070;2023-12-14T04:51:01;96960.97;;;5.70;100.00
16030;BME280;34770;49.272;11.070;2023-12-14T04:53:32;96924.50;;;5.57;100.00
16030;BME280;34770;49.272;11.070;2023-12-14T04:56:01;96909.91;;;5.39;100.00
16030;BME280;34770;49.272;11.070;2023-12-14T04:58:28;96982.09;;;5.75;100.00
16030;BME280;34770;49.272;11.070;2023-12-14T05:00:54;96920.78;;;5.37;100.00
16030;BME280;34770;49.272;11.070;2023-12-14T05:03:30;96980.66;;;5.60;100.00
16030;BME280;34770;49.272;11.070;2023-12-14T05:06:00;96977.88;;;5.50;100.00
16030;BME280;34770;49.272;11.070;2023-12-14T05:08:50;96996.22;;;5.34;100.00
16030;BME280;34770;49.272;11.070;2023-12-14T05:11:18;96986.97;;;5.27;100.00
16030;BME280;34770;49.272;11.070;2023-12-14T05:13:45;96976.97;;;5.07;100.00
16030;BME280;34770;49.272;11.070;2023-12-14T05:16:14;96978.31;;;5.01;100.00
16030;BME280;34770;49.272;11.070;2023-12-14T05:18:41;97011.63;;;5.10;100.00
16030;BME280;34770;49.272;11.070;2023-12-14T05:21:09;97014.78;;;5.04;100.00
16030;BME280;34770;49.272;11.070;2023-12-14T05:23:35;96981.47;;;4.84;100.00
16030;BME280;34770;49.272;11.070;2023-12-14T05:26:24;97015.88;;;5.01;100.00
16030;BME280;34770;49.272;11.070;2023-12-14T05:28:52;96960.47;;;4.67;100.00
16030;BME280;34770;49.272;11.070;2023-12-14T05:31:24;96990.25;;;4.86;100.00
16030;BME280;34770;49.272;11.070;2023-12-14T05:37:53;97040.06;;;5.35;100.00
16030;BME280;34770;49.272;11.070;2023-12-14T05:49:09;97060.31;;;5.39;100.00
16030;BME280;34770;49.272;11.070;2023-12-14T05:51:36;97036.41;;;5.24;100.00
16030;BME280;34770;49.272;11.070;2023-12-14T05:57:37;97080.72;;;5.52;100.00
16030;BME280;34770;49.272;11.070;2023-12-14T06:00:26;97054.44;;;5.34;100.00
16030;BME280;34770;49.272;11.070;2023-12-14T06:03:14;97072.28;;;5.46;100.00
16030;BME280;34770;49.272;11.070;2023-12-14T06:05:44;97079.59;;;5.44;100.00
16030;BME280;34770;49.272;11.070;2023-12-14T06:08:12;97079.47;;;5.45;100.00
16030;BME280;34770;49.272;11.070;2023-12-14T06:10:38;97092.31;;;5.42;100.00
16030;BME280;34770;49.272;11.070;2023-12-14T06:13:04;97085.09;;;5.42;100.00
16030;BME280;34770;49.272;11.070;2023-12-14T06:15:29;97077.03;;;5.31;100.00
16030;BME280;34770;49.272;11.070;2023-12-14T06:17:56;97101.69;;;5.36;100.00
16030;BME280;34770;49.272;11.070;2023-12-14T06:20:59;97053.22;;;5.15;100.00
16030;BME280;34770;49.272;11.070;2023-12-14T06:33:00;97138.44;;;5.13;100.00
16030;BME280;34770;49.272;11.070;2023-12-14T06:35:28;97126.03;;;5.00;100.00
16030;BME280;34770;49.272;11.070;2023-12-14T06:38:11;97119.53;;;4.80;100.00
16030;BME280;34770;49.272;11.070;2023-12-14T06:41:55;97146.66;;;4.88;100.00
16030;BME280;34770;49.272;11.070;2023-12-14T06:48:24;97158.34;;;4.87;100.00
16030;BME280;34770;49.272;11.070;2023-12-14T06:50:52;97172.03;;;4.95;100.00
16030;BME280;34770;49.272;11.070;2023-12-14T06:53:27;97169.25;;;4.97;100.00
16030;BME280;34770;49.272;11.070;2023-12-14T06:56:02;97179.50;;;5.03;100.00
16030;BME280;34770;49.272;11.070;2023-12-14T07:05:28;97160.91;;;4.89;100.00
16030;BME280;34770;49.272;11.070;2023-12-14T07:07:55;97199.56;;;5.10;100.00
16030;BME280;34770;49.272;11.070;2023-12-14T07:10:22;97201.38;;;5.09;100.00
16030;BME280;34770;49.272;11.070;2023-12-14T07:12:47;97197.81;;;5.09;100.00
16030;BME280;34770;49.272;11.070;2023-12-14T07:15:12;97202.56;;;5.05;100.00
16030;BME280;34770;49.272;11.070;2023-12-14T07:17:38;97210.34;;;4.97;100.00
16030;BME280;34770;49.272;11.070;2023-12-14T07:20:06;97228.72;;;5.14;100.00
16030;BME280;34770;49.272;11.070;2023-12-14T07:22:32;97210.38;;;5.08;100.00
16030;BME280;34770;49.272;11.070;2023-12-14T07:24:57;97216.63;;;5.09;100.00
16030;BME280;34770;49.272;11.070;2023-12-14T07:27:23;97243.41;;;5.21;100.00
16030;BME280;34770;49.272;11.070;2023-12-14T07:29:48;97217.47;;;5.09;100.00
16030;BME280;34770;49.272;11.070;2023-12-14T07:32:14;97217.44;;;4.98;100.00
16030;BME280;34770;49.272;11.070;2023-12-14T07:34:39;97248.78;;;5.21;100.00
16030;BME280;34770;49.272;11.070;2023-12-14T07:37:04;97227.13;;;5.12;100.00
16030;BME280;34770;49.272;11.070;2023-12-14T07:39:31;97269.94;;;5.37;100.00
16030;BME280;34770;49.272;11.070;2023-12-14T07:41:57;97265.88;;;5.32;100.00
16030;BME280;34770;49.272;11.070;2023-12-14T08:00:38;97234.88;;;4.69;100.00
16030;BME280;34770;49.272;11.070;2023-12-14T08:03:04;97279.00;;;4.89;100.00
16030;BME280;34770;49.272;11.070;2023-12-14T08:05:30;97289.50;;;4.92;100.00
16030;BME280;34770;49.272;11.070;2023-12-14T08:07:55;97279.34;;;4.84;100.00
16030;BME280;34770;49.272;11.070;2023-12-14T08:10:21;97252.91;;;4.67;100.00
16030;BME280;34770;49.272;11.070;2023-12-14T08:12:46;97282.63;;;4.77;100.00
16030;BME280;34770;49.272;11.070;2023-12-14T08:15:12;97304.59;;;4.82;100.00
16030;BME280;34770;49.272;11.070;2023-12-14T08:17:38;97262.84;;;4.54;100.00
16030;BME280;34770;49.272;11.070;2023-12-14T08:20:04;97308.16;;;4.82;100.00
16030;BME280;34770;49.272;11.070;2023-12-14T08:22:34;97318.59;;;4.98;100.00
16030;BME280;34770;49.272;11.070;2023-12-14T08:24:59;97293.88;;;4.82;100.00
16030;BME280;34770;49.272;11.070;2023-12-14T08:27:24;97280.38;;;4.71;100.00
16030;BME280;34770;49.272;11.070;2023-12-14T08:29:50;97283.75;;;4.85;100.00
16030;BME280;34770;49.272;11.070;2023-12-14T08:32:15;97287.38;;;4.97;100.00
16030;BME280;34770;49.272;11.070;2023-12-14T08:34:40;97307.81;;;5.10;100.00
16030;BME280;34770;49.272;11.070;2023-12-14T08:37:06;97311.03;;;5.26;100.00
16030;BME280;34770;49.272;11.070;2023-12-14T08:39:31;97327.59;;;5.44;100.00
16030;BME280;34770;49.272;11.070;2023-12-14T08:41:56;97331.25;;;5.43;100.00
16030;BME280;34770;49.272;11.070;2023-12-14T08:44:22;97312.78;;;5.28;100.00
16030;BME280;34770;49.272;11.070;2023-12-14T08:46:48;97334.06;;;5.42;100.00
16030;BME280;34770;49.272;11.070;2023-12-14T08:49:14;97347.25;;;5.45;100.00
16030;BME280;34770;49.272;11.070;2023-12-14T08:51:41;97353.66;;;5.55;100.00
16030;BME280;34770;49.272;11.070;2023-12-14T08:54:07;97339.84;;;5.59;100.00
16030;BME280;34770;49.272;11.070;2023-12-14T08:56:32;97340.47;;;5.63;100.00
16030;BME280;34770;49.272;11.070;2023-12-14T08:58:58;97353.38;;;5.47;100.00
16030;BME280;34770;49.272;11.070;2023-12-14T09:01:24;97329.34;;;5.56;100.00
16030;BME280;34770;49.272;11.070;2023-12-14T09:03:51;97376.59;;;5.82;100.00
16030;BME280;34770;49.272;11.070;2023-12-14T09:06:18;97384.34;;;5.98;100.00
16030;BME280;34770;49.272;11.070;2023-12-14T09:08:46;97350.88;;;5.91;99.89
16030;BME280;34770;49.272;11.070;2023-12-14T09:11:12;97375.13;;;6.24;98.43
16030;BME280;34770;49.272;11.070;2023-12-14T09:13:37;97394.22;;;6.55;98.41
16030;BME280;34770;49.272;11.070;2023-12-14T09:16:03;97354.22;;;6.39;98.15
16030;BME280;34770;49.272;11.070;2023-12-14T09:18:29;97404.50;;;6.83;98.21
16030;BME280;34770;49.272;11.070;2023-12-14T09:20:54;97340.88;;;6.37;98.59
16030;BME280;34770;49.272;11.070;2023-12-14T09:23:21;97412.59;;;6.94;98.32
16030;BME280;34770;49.272;11.070;2023-12-14T09:25:46;97425.81;;;6.97;98.62
16030;BME280;34770;49.272;11.070;2023-12-14T09:28:12;97379.81;;;6.78;98.86
16030;BME280;34770;49.272;11.070;2023-12-14T09:30:37;97393.16;;;6.90;99.18
16030;BME280;34770;49.272;11.070;2023-12-14T09:33:03;97442.09;;;7.18;99.67
16030;BME280;34770;49.272;11.070;2023-12-14T09:35:28;97436.09;;;6.92;99.58
16030;BME280;34770;49.272;11.070;2023-12-14T09:37:54;97428.50;;;6.86;99.75
16030;BME280;34770;49.272;11.070;2023-12-14T09:40:23;97422.72;;;6.68;99.71
16030;BME280;34770;49.272;11.070;2023-12-14T09:42:49;97406.81;;;6.54;100.00
16030;BME280;34770;49.272;11.070;2023-12-14T09:45:17;97402.19;;;6.45;100.00
16030;BME280;34770;49.272;11.070;2023-12-14T09:47:46;97449.66;;;6.79;100.00
16030;BME280;34770;49.272;11.070;2023-12-14T09:50:12;97399.97;;;6.39;99.35
16030;BME280;34770;49.272;11.070;2023-12-14T09:52:39;97450.97;;;6.52;99.35
16030;BME280;34770;49.272;11.070;2023-12-14T09:55:05;97448.44;;;6.61;100.00
16030;BME280;34770;49.272;11.070;2023-12-14T09:57:30;97447.56;;;6.50;99.26
16030;BME280;34770;49.272;11.070;2023-12-14T09:59:56;97432.00;;;6.31;100.00
16030;BME280;34770;49.272;11.070;2023-12-14T10:02:26;97448.28;;;6.40;100.00
16030;BME280;34770;49.272;11.070;2023-12-14T10:04:52;97431.38;;;6.27;100.00
16030;BME280;34770;49.272;11.070;2023-12-14T10:07:18;97424.25;;;6.15;100.00
16030;BME280;34770;49.272;11.070;2023-12-14T10:09:45;97491.34;;;6.52;100.00
16030;BME280;34770;49.272;11.070;2023-12-14T10:12:12;97454.59;;;6.17;100.00
16030;BME280;34770;49.272;11.070;2023-12-14T10:14:38;97480.63;;;6.17;100.00
16030;BME280;34770;49.272;11.070;2023-12-14T10:17:17;97497.50;;;6.19;100.00
16030;BME280;34770;49.272;11.070;2023-12-14T10:19:43;97483.31;;;6.17;100.00
16030;BME280;34770;49.272;11.070;2023-12-14T10:22:10;97421.63;;;5.92;100.00
16030;BME280;34770;49.272;11.070;2023-12-14T10:24:37;97481.41;;;6.30;100.00
16030;BME280;34770;49.272;11.070;2023-12-14T10:27:06;97448.34;;;6.17;100.00
16030;BME280;34770;49.272;11.070;2023-12-14T10:29:37;97433.06;;;6.17;99.74
16030;BME280;34770;49.272;11.070;2023-12-14T10:32:04;97457.81;;;6.33;99.60
16030;BME280;34770;49.272;11.070;2023-12-14T10:34:32;97449.75;;;6.33;99.25
16030;BME280;34770;49.272;11.070;2023-12-14T10:36:58;97493.81;;;6.66;99.10
16030;BME280;34770;49.272;11.070;2023-12-14T10:39:24;97487.56;;;6.65;98.69
16030;BME280;34770;49.272;11.070;2023-12-14T10:41:52;97487.72;;;6.75;98.46
16030;BME280;34770;49.272;11.070;2023-12-14T10:44:26;97454.06;;;6.58;98.51
16030;BME280;34770;49.272;11.070;2023-12-14T10:46:55;97434.84;;;6.63;98.58
16030;BME280;34770;49.272;11.070;2023-12-14T10:49:25;97499.84;;;7.47;98.96
16030;BME280;34770;49.272;11.070;2023-12-14T10:51:56;97500.53;;;8.46;94.26
16030;BME280;34770;49.272;11.070;2023-12-14T10:54:24;97496.47;;;8.72;88.68
16030;BME280;34770;49.272;11.070;2023-12-14T10:56:53;97496.00;;;8.46;87.91
16030;BME280;34770;49.272;11.070;2023-12-14T10:59:19;97481.41;;;8.69;85.34
16030;BME280;34770;49.272;11.070;2023-12-14T11:01:44;97474.81;;;8.93;87.30
16030;BME280;34770;49.272;11.070;2023-12-14T11:04:10;97474.66;;;9.45;82.62
16030;BME280;34770;49.272;11.070;2023-12-14T11:06:40;97471.75;;;8.97;80.88
16030;BME280;34770;49.272;11.070;2023-12-14T11:09:07;97459.09;;;8.98;83.44
16030;BME280;34770;49.272;11.070;2023-12-14T11:14:11;97483.69;;;8.53;84.29
16030;BME280;34770;49.272;11.070;2023-12-14T11:16:38;97533.81;;;9.39;83.87
16030;BME280;34770;49.272;11.070;2023-12-14T11:21:46;97511.50;;;8.44;83.35
16030;BME280;34770;49.272;11.070;2023-12-14T11:24:12;97534.06;;;8.85;82.48
16030;BME280;34770;49.272;11.070;2023-12-14T11:26:38;97491.13;;;8.82;81.83
16030;BME280;34770;49.272;11.070;2023-12-14T11:29:07;97502.19;;;9.69;80.69
16030;BME280;34770;49.272;11.070;2023-12-14T11:31:35;97542.81;;;10.67;78.32
16030;BME280;34770;49.272;11.070;2023-12-14T11:34:00;97496.75;;;10.47;73.74
16030;BME280;34770;49.272;11.070;2023-12-14T11:36:28;97546.94;;;10.13;77.55
16030;BME280;34770;49.272;11.070;2023-12-14T11:38:54;97532.16;;;9.47;76.45
16030;BME280;34770;49.272;11.070;2023-12-14T11:41:23;97556.91;;;9.43;79.19
16030;BME280;34770;49.272;11.070;2023-12-14T11:43:50;97528.75;;;9.55;80.52
16030;BME280;34770;49.272;11.070;2023-12-14T11:46:17;97531.09;;;10.28;79.23
16030;BME280;34770;49.272;11.070;2023-12-14T11:48:46;97549.50;;;10.53;76.97
16030;BME280;34770;49.272;11.070;2023-12-14T11:51:15;97520.09;;;9.61;78.21
16030;BME280;34770;49.272;11.070;2023-12-14T11:53:45;97507.59;;;9.29;77.68
16030;BME280;34770;49.272;11.070;2023-12-14T11:56:10;97513.69;;;9.01;80.27
16030;BME280;34770;49.272;11.070;2023-12-14T11:58:36;97548.09;;;8.79;82.82
16030;BME280;34770;49.272;11.070;2023-12-14T12:01:14;97542.91;;;8.66;83.31
16030;BME280;34770;49.272;11.070;2023-12-14T12:03:39;97533.03;;;8.55;83.18
16030;BME280;34770;49.272;11.070;2023-12-14T12:06:05;97550.41;;;8.62;83.75
16030;BME280;34770;49.272;11.070;2023-12-14T12:08:41;97559.63;;;8.60;84.87
16030;BME280;34770;49.272;11.070;2023-12-14T12:11:08;97539.97;;;8.37;86.49
16030;BME280;34770;49.272;11.070;2023-12-14T12:13:34;97561.47;;;8.59;86.89
16030;BME280;34770;49.272;11.070;2023-12-14T12:16:00;97548.34;;;8.23;85.70
16030;BME280;34770;49.272;11.070;2023-12-14T12:18:25;97570.47;;;8.49;86.90
16030;BME280;34770;49.272;11.070;2023-12-14T12:20:51;97533.97;;;8.23;87.02
16030;BME280;34770;49.272;11.070;2023-12-14T12:23:21;97511.59;;;8.11;86.74
16030;BME280;34770;49.272;11.070;2023-12-14T12:25:48;97573.69;;;8.43;87.25
16030;BME280;34770;49.272;11.070;2023-12-14T12:28:13;97538.44;;;8.12;85.66
16030;BME280;34770;49.272;11.070;2023-12-14T12:30:38;97545.09;;;7.97;85.46
16030;BME280;34770;49.272;11.070;2023-12-14T12:33:04;97597.41;;;8.17;86.11
16030;BME280;34770;49.272;11.070;2023-12-14T12:35:29;97544.28;;;7.86;86.54
16030;BME280;34770;49.272;11.070;2023-12-14T12:37:55;97581.47;;;8.14;87.19
16030;BME280;34770;49.272;11.070;2023-12-14T12:40:21;97525.66;;;7.83;88.49
16030;BME280;34770;49.272;11.070;2023-12-14T12:42:49;97582.38;;;8.03;86.58
16030;BME280;34770;49.272;11.070;2023-12-14T12:45:16;97555.81;;;7.88;86.71
16030;BME280;34770;49.272;11.070;2023-12-14T12:47:46;97569.28;;;7.88;86.73
16030;BME280;34770;49.272;11.070;2023-12-14T12:50:12;97579.59;;;7.83;87.68
16030;BME280;34770;49.272;11.070;2023-12-14T12:52:38;97570.50;;;7.84;88.01
16030;BME280;34770;49.272;11.070;2023-12-14T12:55:07;97558.75;;;7.85;87.60
16030;BME280;34770;49.272;11.070;2023-12-14T12:57:33;97582.75;;;7.99;87.60
16030;BME280;34770;49.272;11.070;2023-12-14T12:59:58;97576.03;;;7.93;87.23
16030;BME280;34770;49.272;11.070;2023-12-14T13:02:24;97575.66;;;7.87;87.54
16030;BME280;34770;49.272;11.070;2023-12-14T13:04:49;97590.25;;;7.84;89.35
16030;BME280;34770;49.272;11.070;2023-12-14T13:07:15;97545.06;;;7.43;89.42
16030;BME280;34770;49.272;11.070;2023-12-14T13:09:41;97570.44;;;7.63;90.85
16030;BME280;34770;49.272;11.070;2023-12-14T13:12:06;97592.84;;;7.75;89.76
16030;BME280;34770;49.272;11.070;2023-12-14T13:14:32;97594.31;;;7.68;90.53
16030;BME280;34770;49.272;11.070;2023-12-14T13:16:57;97577.28;;;7.56;90.05
16030;BME280;34770;49.272;11.070;2023-12-14T13:19:26;97614.44;;;7.75;91.72
16030;BME280;34770;49.272;11.070;2023-12-14T13:21:52;97602.03;;;7.61;91.29
16030;BME280;34770;49.272;11.070;2023-12-14T13:24:17;97606.59;;;7.72;91.50
16030;BME280;34770;49.272;11.070;2023-12-14T13:26:43;97612.94;;;7.71;90.76
16030;BME280;34770;49.272;11.070;2023-12-14T13:29:08;97617.72;;;7.78;90.29
16030;BME280;34770;49.272;11.070;2023-12-14T13:31:33;97623.50;;;7.74;89.95
16030;BME280;34770;49.272;11.070;2023-12-14T13:33:59;97629.25;;;7.80;89.81
16030;BME280;34770;49.272;11.070;2023-12-14T13:36:24;97635.72;;;7.78;90.57
16030;BME280;34770;49.272;11.070;2023-12-14T13:38:50;97635.63;;;7.57;91.88
16030;BME280;34770;49.272;11.070;2023-12-14T13:41:15;97636.72;;;7.66;89.03
16030;BME280;34770;49.272;11.070;2023-12-14T13:43:40;97625.19;;;7.52;89.68
16030;BME280;34770;49.272;11.070;2023-12-14T13:46:06;97648.47;;;7.53;90.24
16030;BME280;34770;49.272;11.070;2023-12-14T13:48:31;97651.19;;;7.65;90.62
16030;BME280;34770;49.272;11.070;2023-12-14T13:50:57;97640.41;;;7.65;90.92
16030;BME280;34770;49.272;11.070;2023-12-14T13:53:23;97660.63;;;7.70;90.77
16030;BME280;34770;49.272;11.070;2023-12-14T13:55:49;97678.63;;;7.70;91.02
16030;BME280;34770;49.272;11.070;2023-12-14T13:58:15;97638.66;;;7.41;91.46
16030;BME280;34770;49.272;11.070;2023-12-14T14:00:41;97649.22;;;7.55;91.07
16030;BME280;34770;49.272;11.070;2023-12-14T14:03:06;97684.50;;;7.64;90.45
16030;BME280;34770;49.272;11.070;2023-12-14T14:05:32;97682.81;;;7.63;91.53
16030;BME280;34770;49.272;11.070;2023-12-14T14:07:57;97666.97;;;7.47;91.67
16030;BME280;34770;49.272;11.070;2023-12-14T14:10:23;97670.81;;;7.10;92.17
16030;BME280;34770;49.272;11.070;2023-12-14T14:12:49;97686.66;;;7.25;93.37
16030;BME280;34770;49.272;11.070;2023-12-14T14:15:15;97712.03;;;7.34;93.91
16030;BME280;34770;49.272;11.070;2023-12-14T14:17:40;97699.41;;;7.23;94.53
16030;BME280;34770;49.272;11.070;2023-12-14T14:20:06;97720.22;;;7.21;94.67
16030;BME280;34770;49.272;11.070;2023-12-14T14:22:33;97632.94;;;6.65;95.96
16030;BME280;34770;49.272;11.070;2023-12-14T14:24:59;97724.16;;;7.05;96.39
16030;BME280;34770;49.272;11.070;2023-12-14T14:27:24;97676.88;;;6.66;95.65
16030;BME280;34770;49.272;11.070;2023-12-14T14:29:50;97726.88;;;6.81;97.21
16030;BME280;34770;49.272;11.070;2023-12-14T14:32:18;97731.78;;;6.76;97.57
16030;BME280;34770;49.272;11.070;2023-12-14T14:34:43;97753.69;;;6.82;98.54
16030;BME280;34770;49.272;11.070;2023-12-14T14:37:09;97752.16;;;6.67;98.94
16030;BME280;34770;49.272;11.070;2023-12-14T14:39:34;97771.63;;;6.71;99.89
16030;BME280;34770;49.272;11.070;2023-12-14T14:41:59;97712.75;;;6.30;99.82
16030;BME280;34770;49.272;11.070;2023-12-14T14:44:25;97759.81;;;6.61;100.00
16030;BME280;34770;49.272;11.070;2023-12-14T14:46:51;97750.72;;;6.51;100.00
16030;BME280;34770;49.272;11.070;2023-12-14T14:49:16;97767.59;;;6.53;99.91
16030;BME280;34770;49.272;11.070;2023-12-14T14:51:42;97767.63;;;6.40;99.74
16030;BME280;34770;49.272;11.070;2023-12-14T14:54:07;97786.34;;;6.41;100.00
16030;BME280;34770;49.272;11.070;2023-12-14T14:56:33;97775.59;;;6.29;100.00
16030;BME280;34770;49.272;11.070;2023-12-14T14:58:58;97780.03;;;6.30;100.00
16030;BME280;34770;49.272;11.070;2023-12-14T15:01:24;97777.03;;;6.22;100.00
16030;BME280;34770;49.272;11.070;2023-12-14T15:03:49;97792.22;;;6.23;100.00
16030;BME280;34770;49.272;11.070;2023-12-14T15:06:15;97800.81;;;6.28;100.00
16030;BME280;34770;49.272;11.070;2023-12-14T15:08:40;97798.97;;;6.16;100.00
16030;BME280;34770;49.272;11.070;2023-12-14T15:11:06;97792.88;;;6.14;100.00
16030;BME280;34770;49.272;11.070;2023-12-14T15:13:35;97802.75;;;6.13;100.00
16030;BME280;34770;49.272;11.070;2023-12-14T15:16:00;97755.13;;;5.90;100.00
16030;BME280;34770;49.272;11.070;2023-12-14T15:18:25;97821.16;;;6.19;100.00
16030;BME280;34770;49.272;11.070;2023-12-14T15:20:51;97775.44;;;5.94;100.00
16030;BME280;34770;49.272;11.070;2023-12-14T15:23:18;97810.41;;;6.19;100.00
16030;BME280;34770;49.272;11.070;2023-12-14T15:25:43;97768.13;;;5.96;100.00
16030;BME280;34770;49.272;11.070;2023-12-14T15:28:09;97801.13;;;5.98;100.00
16030;BME280;34770;49.272;11.070;2023-12-14T15:30:34;97823.97;;;6.05;100.00
16030;BME280;34770;49.272;11.070;2023-12-14T15:33:00;97823.41;;;5.88;100.00
16030;BME280;34770;49.272;11.070;2023-12-14T15:35:25;97847.28;;;6.05;100.00
16030;BME280;34770;49.272;11.070;2023-12-14T15:37:51;97852.47;;;6.08;100.00
16030;BME280;34770;49.272;11.070;2023-12-14T15:40:16;97855.28;;;6.06;100.00
16030;BME280;34770;49.272;11.070;2023-12-14T15:42:42;97851.16;;;6.01;100.00
16030;BME280;34770;49.272;11.070;2023-12-14T15:45:08;97874.63;;;6.11;100.00
16030;BME280;34770;49.272;11.070;2023-12-14T15:47:33;97826.28;;;5.84;100.00
16030;BME280;34770;49.272;11.070;2023-12-14T15:49:58;97870.63;;;6.04;100.00
16030;BME280;34770;49.272;11.070;2023-12-14T15:52:24;97874.41;;;6.02;100.00
16030;BME280;34770;49.272;11.070;2023-12-14T15:54:49;97896.69;;;6.16;100.00
16030;BME280;34770;49.272;11.070;2023-12-14T15:57:14;97883.34;;;6.02;100.00
16030;BME280;34770;49.272;11.070;2023-12-14T15:59:40;97896.16;;;6.11;100.00
16030;BME280;34770;49.272;11.070;2023-12-14T16:02:06;97892.47;;;6.12;100.00
16030;BME280;34770;49.272;11.070;2023-12-14T16:04:31;97897.66;;;6.15;100.00
16030;BME280;34770;49.272;11.070;2023-12-14T16:06:57;97893.44;;;5.99;100.00
16030;BME280;34770;49.272;11.070;2023-12-14T16:09:23;97897.19;;;5.96;100.00
16030;BME280;34770;49.272;11.070;2023-12-14T16:11:49;97902.50;;;5.98;100.00
16030;BME280;34770;49.272;11.070;2023-12-14T16:14:14;97909.47;;;6.00;100.00
16030;BME280;34770;49.272;11.070;2023-12-14T16:16:39;97917.44;;;5.89;100.00
16030;BME280;34770;49.272;11.070;2023-12-14T16:19:05;97905.31;;;5.82;100.00
16030;BME280;34770;49.272;11.070;2023-12-14T16:21:30;97930.53;;;5.94;100.00
16030;BME280;34770;49.272;11.070;2023-12-14T16:23:57;97901.53;;;5.72;100.00
16030;BME280;34770;49.272;11.070;2023-12-14T16:26:22;97882.13;;;5.54;100.00
16030;BME280;34770;49.272;11.070;2023-12-14T16:28:47;97947.63;;;5.93;100.00
16030;BME280;34770;49.272;11.070;2023-12-14T16:31:13;97926.59;;;5.72;100.00
16030;BME280;34770;49.272;11.070;2023-12-14T16:33:38;97946.34;;;5.86;100.00
16030;BME280;34770;49.272;11.070;2023-12-14T16:36:14;97943.34;;;5.76;100.00
16030;BME280;34770;49.272;11.070;2023-12-14T16:38:40;97961.09;;;5.78;100.00
16030;BME280;34770;49.272;11.070;2023-12-14T16:41:06;97965.31;;;5.82;100.00
16030;BME280;34770;49.272;11.070;2023-12-14T16:43:32;97952.81;;;5.69;100.00
16030;BME280;34770;49.272;11.070;2023-12-14T16:45:58;97951.09;;;5.68;100.00
16030;BME280;34770;49.272;11.070;2023-12-14T16:48:23;97945.56;;;5.57;100.00
16030;BME280;34770;49.272;11.070;2023-12-14T16:50:49;97942.31;;;5.52;100.00
16030;BME280;34770;49.272;11.070;2023-12-14T16:53:22;97963.78;;;5.66;100.00
16030;BME280;34770;49.272;11.070;2023-12-14T16:55:48;97970.66;;;5.70;100.00
16030;BME280;34770;49.272;11.070;2023-12-14T16:58:15;97975.81;;;5.73;100.00
16030;BME280;34770;49.272;11.070;2023-12-14T17:00:41;97996.94;;;5.79;100.00
16030;BME280;34770;49.272;11.070;2023-12-14T17:03:06;98003.69;;;5.72;100.00
16030;BME280;34770;49.272;11.070;2023-12-14T17:05:31;97999.66;;;5.65;100.00
16030;BME280;34770;49.272;11.070;2023-12-14T17:07:57;98007.72;;;5.65;100.00
16030;BME280;34770;49.272;11.070;2023-12-14T17:10:22;97983.03;;;5.46;100.00
16030;BME280;34770;49.272;11.070;2023-12-14T17:12:48;98007.84;;;5.63;100.00
16030;BME280;34770;49.272;11.070;2023-12-14T17:15:13;98009.69;;;5.75;100.00
16030;BME280;34770;49.272;11.070;2023-12-14T17:17:39;98024.41;;;5.70;100.00
16030;BME280;34770;49.272;11.070;2023-12-14T17:20:06;97982.50;;;5.53;100.00
16030;BME280;34770;49.272;11.070;2023-12-14T17:22:32;98022.00;;;5.53;100.00
16030;BME280;34770;49.272;11.070;2023-12-14T17:25:03;98043.47;;;5.67;100.00
16030;BME280;34770;49.272;11.070;2023-12-14T17:27:31;98039.03;;;5.66;100.00
16030;BME280;34770;49.272;11.070;2023-12-14T17:29:57;98046.16;;;5.67;100.00
16030;BME280;34770;49.272;11.070;2023-12-14T17:32:22;98062.16;;;5.68;100.00
16030;BME280;34770;49.272;11.070;2023-12-14T17:34:48;98044.59;;;5.63;100.00
16030;BME280;34770;49.272;11.070;2023-12-14T17:37:13;98046.53;;;5.61;100.00
16030;BME280;34770;49.272;11.070;2023-12-14T17:39:38;98052.13;;;5.58;100.00
16030;BME280;34770;49.272;11.070;2023-12-14T17:42:05;98065.91;;;5.66;100.00
16030;BME280;34770;49.272;11.070;2023-12-14T17:44:30;98096.22;;;5.68;100.00
16030;BME280;34770;49.272;11.070;2023-12-14T17:46:56;98073.09;;;5.65;100.00
16030;BME280;34770;49.272;11.070;2023-12-14T17:49:21;98056.25;;;5.49;100.00
16030;BME280;34770;49.272;11.070;2023-12-14T17:51:47;98077.06;;;5.60;100.00